sensor_id;sensor_type;location;lat;lon;timestamp;P1;durP1;ratioP1;P2;durP2;ratioP2
67941;SDS011;54731;42.600;23.476;2024-01-16T00:00:13;23.77;;;12.17;;
67941;SDS011;54731;42.600;23.476;2024-01-16T00:02:39;30.00;;;13.30;;
67941;SDS011;54731;42.600;23.476;2024-01-16T00:05:04;32.70;;;14.43;;
67941;SDS011;54731;42.600;23.476;2024-01-16T00:07:30;30.63;;;15.10;;
67941;SDS011;54731;42.600;23.476;2024-01-16T00:09:55;30.90;;;15.57;;
67941;SDS011;54731;42.600;23.476;2024-01-16T00:12:21;28.93;;;13.93;;
67941;SDS011;54731;42.600;23.476;2024-01-16T00:14:46;27.52;;;14.13;;
67941;SDS011;54731;42.600;23.476;2024-01-16T00:17:11;23.05;;;11.63;;
67941;SDS011;54731;42.600;23.476;2024-01-16T00:19:37;21.07;;;11.10;;
67941;SDS011;54731;42.600;23.476;2024-01-16T00:22:02;18.77;;;10.63;;
67941;SDS011;54731;42.600;23.476;2024-01-16T00:24:27;19.47;;;10.33;;
67941;SDS011;54731;42.600;23.476;2024-01-16T00:26:53;26.73;;;12.23;;
67941;SDS011;54731;42.600;23.476;2024-01-16T00:29:18;29.00;;;13.77;;
67941;SDS011;54731;42.600;23.476;2024-01-16T00:31:43;34.27;;;15.40;;
67941;SDS011;54731;42.600;23.476;2024-01-16T00:34:09;27.80;;;13.80;;
67941;SDS011;54731;42.600;23.476;2024-01-16T00:36:34;29.80;;;15.07;;
67941;SDS011;54731;42.600;23.476;2024-01-16T00:38:59;31.63;;;14.10;;
67941;SDS011;54731;42.600;23.476;2024-01-16T00:41:25;40.23;;;16.87;;
67941;SDS011;54731;42.600;23.476;2024-01-16T00:43:50;25.90;;;13.63;;
67941;SDS011;54731;42.600;23.476;2024-01-16T00:46:15;33.97;;;15.67;;
67941;SDS011;54731;42.600;23.476;2024-01-16T00:48:41;32.63;;;17.73;;
67941;SDS011;54731;42.600;23.476;2024-01-16T00:51:06;33.73;;;15.57;;
67941;SDS011;54731;42.600;23.476;2024-01-16T00:53:31;26.87;;;14.27;;
67941;SDS011;54731;42.600;23.476;2024-01-16T00:55:56;28.47;;;13.40;;
67941;SDS011;54731;42.600;23.476;2024-01-16T00:58:22;28.42;;;13.35;;
67941;SDS011;54731;42.600;23.476;2024-01-16T01:00:48;30.13;;;15.30;;
67941;SDS011;54731;42.600;23.476;2024-01-16T01:03:13;34.90;;;15.00;;
67941;SDS011;54731;42.600;23.476;2024-01-16T01:05:39;35.30;;;14.60;;
67941;SDS011;54731;42.600;23.476;2024-01-16T01:08:04;28.80;;;14.27;;
67941;SDS011;54731;42.600;23.476;2024-01-16T01:10:30;28.10;;;14.52;;
67941;SDS011;54731;42.600;23.476;2024-01-16T01:12:55;25.87;;;13.30;;
67941;SDS011;54731;42.600;23.476;2024-01-16T01:15:21;25.30;;;13.43;;
67941;SDS011;54731;42.600;23.476;2024-01-16T01:17:48;40.30;;;20.40;;
67941;SDS011;54731;42.600;23.476;2024-01-16T01:20:14;30.80;;;14.05;;
67941;SDS011;54731;42.600;23.476;2024-01-16T01:22:39;25.33;;;12.63;;
67941;SDS011;54731;42.600;23.476;2024-01-16T01:25:05;25.30;;;11.73;;
67941;SDS011;54731;42.600;23.476;2024-01-16T01:27:31;27.95;;;13.68;;
67941;SDS011;54731;42.600;23.476;2024-01-16T01:29:56;26.63;;;12.90;;
67941;SDS011;54731;42.600;23.476;2024-01-16T01:32:22;34.85;;;17.83;;
67941;SDS011;54731;42.600;23.476;2024-01-16T01:34:47;33.37;;;14.43;;
67941;SDS011;54731;42.600;23.476;2024-01-16T01:37:12;21.67;;;12.67;;
67941;SDS011;54731;42.600;23.476;2024-01-16T01:39:38;24.43;;;12.83;;
67941;SDS011;54731;42.600;23.476;2024-01-16T01:42:03;18.90;;;9.07;;
67941;SDS011;54731;42.600;23.476;2024-01-16T01:44:28;20.85;;;8.50;;
67941;SDS011;54731;42.600;23.476;2024-01-16T01:46:54;31.43;;;13.80;;
67941;SDS011;54731;42.600;23.476;2024-01-16T01:49:20;17.73;;;9.00;;
67941;SDS011;54731;42.600;23.476;2024-01-16T01:51:46;18.33;;;7.63;;
67941;SDS011;54731;42.600;23.476;2024-01-16T01:54:12;28.23;;;14.67;;
67941;SDS011;54731;42.600;23.476;2024-01-16T01:56:38;26.48;;;13.93;;
67941;SDS011;54731;42.600;23.476;2024-01-16T01:59:06;21.20;;;10.35;;
67941;SDS011;54731;42.600;23.476;2024-01-16T02:01:32;14.70;;;8.17;;
67941;SDS011;54731;42.600;23.476;2024-01-16T02:03:59;19.02;;;9.77;;
67941;SDS011;54731;42.600;23.476;2024-01-16T02:06:26;18.98;;;12.35;;
67941;SDS011;54731;42.600;23.476;2024-01-16T02:08:52;17.67;;;10.33;;
67941;SDS011;54731;42.600;23.476;2024-01-16T02:11:18;19.30;;;10.70;;
67941;SDS011;54731;42.600;23.476;2024-01-16T02:13:43;14.60;;;8.65;;
67941;SDS011;54731;42.600;23.476;2024-01-16T02:16:18;14.90;;;8.23;;
67941;SDS011;54731;42.600;23.476;2024-01-16T02:18:44;11.60;;;6.15;;
67941;SDS011;54731;42.600;23.476;2024-01-16T02:21:09;12.07;;;5.80;;
67941;SDS011;54731;42.600;23.476;2024-01-16T02:23:35;10.93;;;5.60;;
67941;SDS011;54731;42.600;23.476;2024-01-16T02:26:00;7.60;;;4.53;;
67941;SDS011;54731;42.600;23.476;2024-01-16T02:28:27;10.02;;;4.75;;
67941;SDS011;54731;42.600;23.476;2024-01-16T02:30:53;9.93;;;4.60;;
67941;SDS011;54731;42.600;23.476;2024-01-16T02:33:18;8.50;;;4.47;;
67941;SDS011;54731;42.600;23.476;2024-01-16T02:35:43;8.25;;;3.65;;
67941;SDS011;54731;42.600;23.476;2024-01-16T02:38:09;9.83;;;4.27;;
67941;SDS011;54731;42.600;23.476;2024-01-16T02:40:34;6.87;;;3.20;;
67941;SDS011;54731;42.600;23.476;2024-01-16T02:42:59;9.10;;;4.37;;
67941;SDS011;54731;42.600;23.476;2024-01-16T02:45:25;12.63;;;5.70;;
67941;SDS011;54731;42.600;23.476;2024-01-16T02:47:50;8.23;;;5.40;;
67941;SDS011;54731;42.600;23.476;2024-01-16T02:50:15;10.37;;;5.77;;
67941;SDS011;54731;42.600;23.476;2024-01-16T02:52:41;7.20;;;4.20;;
67941;SDS011;54731;42.600;23.476;2024-01-16T02:55:06;6.30;;;4.00;;
67941;SDS011;54731;42.600;23.476;2024-01-16T02:57:32;6.28;;;3.88;;
67941;SDS011;54731;42.600;23.476;2024-01-16T02:59:57;7.27;;;3.50;;
67941;SDS011;54731;42.600;23.476;2024-01-16T03:02:22;5.10;;;2.80;;
67941;SDS011;54731;42.600;23.476;2024-01-16T03:04:48;5.33;;;2.73;;
67941;SDS011;54731;42.600;23.476;2024-01-16T03:07:13;6.60;;;3.23;;
67941;SDS011;54731;42.600;23.476;2024-01-16T03:09:38;8.43;;;4.07;;
67941;SDS011;54731;42.600;23.476;2024-01-16T03:12:04;7.50;;;4.57;;
67941;SDS011;54731;42.600;23.476;2024-01-16T03:14:29;7.07;;;3.80;;
67941;SDS011;54731;42.600;23.476;2024-01-16T03:16:55;9.97;;;4.60;;
67941;SDS011;54731;42.600;23.476;2024-01-16T03:19:20;11.97;;;5.67;;
67941;SDS011;54731;42.600;23.476;2024-01-16T03:21:45;11.38;;;4.90;;
67941;SDS011;54731;42.600;23.476;2024-01-16T03:24:10;10.77;;;5.30;;
67941;SDS011;54731;42.600;23.476;2024-01-16T03:26:36;9.17;;;3.70;;
67941;SDS011;54731;42.600;23.476;2024-01-16T03:29:01;8.67;;;3.83;;
67941;SDS011;54731;42.600;23.476;2024-01-16T03:31:27;9.47;;;4.07;;
67941;SDS011;54731;42.600;23.476;2024-01-16T03:33:52;8.40;;;3.90;;
67941;SDS011;54731;42.600;23.476;2024-01-16T03:36:17;7.13;;;3.67;;
67941;SDS011;54731;42.600;23.476;2024-01-16T03:38:43;9.23;;;4.43;;
67941;SDS011;54731;42.600;23.476;2024-01-16T03:41:08;8.57;;;4.70;;
67941;SDS011;54731;42.600;23.476;2024-01-16T03:43:35;10.40;;;5.10;;
67941;SDS011;54731;42.600;23.476;2024-01-16T03:46:00;10.75;;;5.40;;
67941;SDS011;54731;42.600;23.476;2024-01-16T03:48:26;7.70;;;4.00;;
67941;SDS011;54731;42.600;23.476;2024-01-16T03:50:51;7.67;;;4.00;;
67941;SDS011;54731;42.600;23.476;2024-01-16T03:53:16;7.97;;;4.23;;
67941;SDS011;54731;42.600;23.476;2024-01-16T03:55:42;5.67;;;3.80;;
67941;SDS011;54731;42.600;23.476;2024-01-16T03:58:07;6.17;;;3.50;;
67941;SDS011;54731;42.600;23.476;2024-01-16T04:00:32;5.77;;;3.27;;
67941;SDS011;54731;42.600;23.476;2024-01-16T04:02:58;6.03;;;3.43;;
67941;SDS011;54731;42.600;23.476;2024-01-16T04:05:23;5.85;;;3.30;;
67941;SDS011;54731;42.600;23.476;2024-01-16T04:07:48;4.97;;;3.23;;
67941;SDS011;54731;42.600;23.476;2024-01-16T04:10:14;4.73;;;2.90;;
67941;SDS011;54731;42.600;23.476;2024-01-16T04:12:39;5.17;;;2.83;;
67941;SDS011;54731;42.600;23.476;2024-01-16T04:15:04;7.00;;;3.40;;
67941;SDS011;54731;42.600;23.476;2024-01-16T04:17:30;5.63;;;3.27;;
67941;SDS011;54731;42.600;23.476;2024-01-16T04:19:55;5.22;;;3.25;;
67941;SDS011;54731;42.600;23.476;2024-01-16T04:22:21;5.93;;;3.10;;
67941;SDS011;54731;42.600;23.476;2024-01-16T04:24:46;4.57;;;2.90;;
67941;SDS011;54731;42.600;23.476;2024-01-16T04:27:11;4.53;;;2.10;;
67941;SDS011;54731;42.600;23.476;2024-01-16T04:29:37;3.67;;;1.53;;
67941;SDS011;54731;42.600;23.476;2024-01-16T04:32:02;5.50;;;2.30;;
67941;SDS011;54731;42.600;23.476;2024-01-16T04:34:27;3.65;;;2.03;;
67941;SDS011;54731;42.600;23.476;2024-01-16T04:36:53;2.60;;;2.20;;
67941;SDS011;54731;42.600;23.476;2024-01-16T04:39:18;4.77;;;2.53;;
67941;SDS011;54731;42.600;23.476;2024-01-16T04:41:43;4.70;;;2.90;;
67941;SDS011;54731;42.600;23.476;2024-01-16T04:44:09;3.73;;;2.10;;
67941;SDS011;54731;42.600;23.476;2024-01-16T04:46:34;6.70;;;2.93;;
67941;SDS011;54731;42.600;23.476;2024-01-16T04:48:59;9.23;;;3.10;;
67941;SDS011;54731;42.600;23.476;2024-01-16T04:51:24;4.50;;;2.10;;
67941;SDS011;54731;42.600;23.476;2024-01-16T04:53:50;5.83;;;2.63;;
67941;SDS011;54731;42.600;23.476;2024-01-16T04:56:15;5.93;;;2.37;;
67941;SDS011;54731;42.600;23.476;2024-01-16T04:58:40;2.75;;;1.80;;
67941;SDS011;54731;42.600;23.476;2024-01-16T05:01:06;3.23;;;2.00;;
67941;SDS011;54731;42.600;23.476;2024-01-16T05:03:31;5.13;;;2.30;;
67941;SDS011;54731;42.600;23.476;2024-01-16T05:05:56;3.50;;;1.97;;
67941;SDS011;54731;42.600;23.476;2024-01-16T05:08:22;3.40;;;1.50;;
67941;SDS011;54731;42.600;23.476;2024-01-16T05:10:47;3.83;;;2.53;;
67941;SDS011;54731;42.600;23.476;2024-01-16T05:13:13;3.65;;;2.17;;
67941;SDS011;54731;42.600;23.476;2024-01-16T05:15:38;3.53;;;1.90;;
67941;SDS011;54731;42.600;23.476;2024-01-16T05:18:03;3.70;;;2.30;;
67941;SDS011;54731;42.600;23.476;2024-01-16T05:20:29;7.07;;;5.57;;
67941;SDS011;54731;42.600;23.476;2024-01-16T05:22:54;6.10;;;4.00;;
67941;SDS011;54731;42.600;23.476;2024-01-16T05:25:19;2.97;;;1.90;;
67941;SDS011;54731;42.600;23.476;2024-01-16T05:27:45;2.83;;;1.27;;
67941;SDS011;54731;42.600;23.476;2024-01-16T05:30:10;5.30;;;2.20;;
67941;SDS011;54731;42.600;23.476;2024-01-16T05:32:36;2.90;;;1.40;;
67941;SDS011;54731;42.600;23.476;2024-01-16T05:35:01;2.57;;;1.40;;
67941;SDS011;54731;42.600;23.476;2024-01-16T05:37:26;3.00;;;2.00;;
67941;SDS011;54731;42.600;23.476;2024-01-16T05:39:52;2.63;;;1.47;;
67941;SDS011;54731;42.600;23.476;2024-01-16T05:42:17;2.13;;;1.20;;
67941;SDS011;54731;42.600;23.476;2024-01-16T05:44:42;3.03;;;1.57;;
67941;SDS011;54731;42.600;23.476;2024-01-16T05:47:07;8.70;;;2.90;;
67941;SDS011;54731;42.600;23.476;2024-01-16T05:49:33;2.70;;;1.10;;
67941;SDS011;54731;42.600;23.476;2024-01-16T05:51:58;1.87;;;1.03;;
67941;SDS011;54731;42.600;23.476;2024-01-16T05:54:23;2.10;;;1.00;;
67941;SDS011;54731;42.600;23.476;2024-01-16T05:56:49;2.53;;;1.20;;
67941;SDS011;54731;42.600;23.476;2024-01-16T05:59:14;3.50;;;1.80;;
67941;SDS011;54731;42.600;23.476;2024-01-16T06:01:39;2.73;;;1.40;;
67941;SDS011;54731;42.600;23.476;2024-01-16T06:04:05;3.45;;;1.30;;
67941;SDS011;54731;42.600;23.476;2024-01-16T06:06:30;3.88;;;1.90;;
67941;SDS011;54731;42.600;23.476;2024-01-16T06:08:55;3.10;;;2.10;;
67941;SDS011;54731;42.600;23.476;2024-01-16T06:11:31;3.63;;;2.17;;
67941;SDS011;54731;42.600;23.476;2024-01-16T06:13:56;2.17;;;1.33;;
67941;SDS011;54731;42.600;23.476;2024-01-16T06:16:22;2.10;;;1.10;;
67941;SDS011;54731;42.600;23.476;2024-01-16T06:18:47;3.23;;;1.87;;
67941;SDS011;54731;42.600;23.476;2024-01-16T06:21:12;2.77;;;1.33;;
67941;SDS011;54731;42.600;23.476;2024-01-16T06:23:38;4.47;;;2.60;;
67941;SDS011;54731;42.600;23.476;2024-01-16T06:26:03;7.93;;;2.80;;
67941;SDS011;54731;42.600;23.476;2024-01-16T06:28:28;7.83;;;2.90;;
67941;SDS011;54731;42.600;23.476;2024-01-16T06:30:54;10.67;;;3.30;;
67941;SDS011;54731;42.600;23.476;2024-01-16T06:33:19;8.68;;;3.00;;
67941;SDS011;54731;42.600;23.476;2024-01-16T06:35:44;11.17;;;3.37;;
67941;SDS011;54731;42.600;23.476;2024-01-16T06:38:10;7.57;;;3.67;;
67941;SDS011;54731;42.600;23.476;2024-01-16T06:40:35;10.77;;;3.53;;
67941;SDS011;54731;42.600;23.476;2024-01-16T06:43:00;20.00;;;6.30;;
67941;SDS011;54731;42.600;23.476;2024-01-16T06:45:25;15.33;;;5.83;;
67941;SDS011;54731;42.600;23.476;2024-01-16T06:47:51;12.80;;;4.03;;
67941;SDS011;54731;42.600;23.476;2024-01-16T06:50:16;19.33;;;8.33;;
67941;SDS011;54731;42.600;23.476;2024-01-16T06:52:41;9.57;;;4.00;;
67941;SDS011;54731;42.600;23.476;2024-01-16T06:55:07;9.20;;;3.63;;
67941;SDS011;54731;42.600;23.476;2024-01-16T06:57:32;7.78;;;4.00;;
67941;SDS011;54731;42.600;23.476;2024-01-16T06:59:57;8.97;;;3.63;;
67941;SDS011;54731;42.600;23.476;2024-01-16T07:02:23;4.30;;;2.40;;
67941;SDS011;54731;42.600;23.476;2024-01-16T07:04:48;4.40;;;2.40;;
67941;SDS011;54731;42.600;23.476;2024-01-16T07:07:13;5.80;;;2.70;;
67941;SDS011;54731;42.600;23.476;2024-01-16T07:09:39;7.33;;;3.30;;
67941;SDS011;54731;42.600;23.476;2024-01-16T07:12:04;5.97;;;2.20;;
67941;SDS011;54731;42.600;23.476;2024-01-16T07:14:29;5.03;;;2.65;;
67941;SDS011;54731;42.600;23.476;2024-01-16T07:16:55;5.20;;;2.30;;
67941;SDS011;54731;42.600;23.476;2024-01-16T07:19:21;4.25;;;1.83;;
67941;SDS011;54731;42.600;23.476;2024-01-16T07:21:46;3.67;;;1.57;;
67941;SDS011;54731;42.600;23.476;2024-01-16T07:24:11;3.70;;;1.50;;
67941;SDS011;54731;42.600;23.476;2024-01-16T07:26:37;3.73;;;1.50;;
67941;SDS011;54731;42.600;23.476;2024-01-16T07:29:02;5.73;;;2.27;;
67941;SDS011;54731;42.600;23.476;2024-01-16T07:31:27;5.70;;;2.20;;
67941;SDS011;54731;42.600;23.476;2024-01-16T07:33:53;5.53;;;2.23;;
67941;SDS011;54731;42.600;23.476;2024-01-16T07:36:18;4.13;;;1.90;;
67941;SDS011;54731;42.600;23.476;2024-01-16T07:38:43;8.20;;;2.20;;
67941;SDS011;54731;42.600;23.476;2024-01-16T07:41:09;2.28;;;1.67;;
67941;SDS011;54731;42.600;23.476;2024-01-16T07:43:34;7.20;;;2.50;;
67941;SDS011;54731;42.600;23.476;2024-01-16T07:45:59;4.73;;;2.00;;
67941;SDS011;54731;42.600;23.476;2024-01-16T07:48:25;4.00;;;1.53;;
67941;SDS011;54731;42.600;23.476;2024-01-16T07:50:50;6.53;;;2.30;;
67941;SDS011;54731;42.600;23.476;2024-01-16T07:53:16;6.18;;;1.83;;
67941;SDS011;54731;42.600;23.476;2024-01-16T07:55:41;11.27;;;2.80;;
67941;SDS011;54731;42.600;23.476;2024-01-16T07:58:07;6.60;;;2.13;;
67941;SDS011;54731;42.600;23.476;2024-01-16T08:00:32;8.13;;;2.30;;
67941;SDS011;54731;42.600;23.476;2024-01-16T08:02:58;9.03;;;3.70;;
67941;SDS011;54731;42.600;23.476;2024-01-16T08:05:23;6.17;;;2.20;;
67941;SDS011;54731;42.600;23.476;2024-01-16T08:07:48;5.67;;;1.90;;
67941;SDS011;54731;42.600;23.476;2024-01-16T08:10:14;6.37;;;2.27;;
67941;SDS011;54731;42.600;23.476;2024-01-16T08:12:40;5.20;;;2.10;;
67941;SDS011;54731;42.600;23.476;2024-01-16T08:15:06;7.83;;;2.30;;
67941;SDS011;54731;42.600;23.476;2024-01-16T08:17:31;4.03;;;1.52;;
67941;SDS011;54731;42.600;23.476;2024-01-16T08:19:57;7.00;;;2.27;;
67941;SDS011;54731;42.600;23.476;2024-01-16T08:22:22;5.47;;;2.50;;
67941;SDS011;54731;42.600;23.476;2024-01-16T08:24:47;6.90;;;2.63;;
67941;SDS011;54731;42.600;23.476;2024-01-16T08:27:13;3.40;;;1.50;;
67941;SDS011;54731;42.600;23.476;2024-01-16T08:29:38;7.60;;;2.10;;
67941;SDS011;54731;42.600;23.476;2024-01-16T08:32:03;11.23;;;3.40;;
67941;SDS011;54731;42.600;23.476;2024-01-16T08:34:29;10.90;;;3.90;;
67941;SDS011;54731;42.600;23.476;2024-01-16T08:36:54;9.80;;;2.93;;
67941;SDS011;54731;42.600;23.476;2024-01-16T08:39:19;9.00;;;3.73;;
67941;SDS011;54731;42.600;23.476;2024-01-16T08:41:45;9.13;;;2.80;;
67941;SDS011;54731;42.600;23.476;2024-01-16T08:44:10;13.13;;;3.80;;
67941;SDS011;54731;42.600;23.476;2024-01-16T08:46:35;6.33;;;2.17;;
67941;SDS011;54731;42.600;23.476;2024-01-16T08:49:01;10.43;;;3.90;;
67941;SDS011;54731;42.600;23.476;2024-01-16T08:51:26;7.60;;;2.47;;
67941;SDS011;54731;42.600;23.476;2024-01-16T08:53:51;6.33;;;2.20;;
67941;SDS011;54731;42.600;23.476;2024-01-16T08:56:16;8.10;;;2.58;;
67941;SDS011;54731;42.600;23.476;2024-01-16T08:58:42;6.73;;;2.40;;
67941;SDS011;54731;42.600;23.476;2024-01-16T09:01:07;4.77;;;1.90;;
67941;SDS011;54731;42.600;23.476;2024-01-16T09:03:33;9.23;;;2.57;;
67941;SDS011;54731;42.600;23.476;2024-01-16T09:05:59;8.30;;;2.60;;
67941;SDS011;54731;42.600;23.476;2024-01-16T09:08:25;7.17;;;2.60;;
67941;SDS011;54731;42.600;23.476;2024-01-16T09:10:51;10.93;;;2.88;;
67941;SDS011;54731;42.600;23.476;2024-01-16T09:13:17;9.47;;;2.97;;
67941;SDS011;54731;42.600;23.476;2024-01-16T09:15:42;12.40;;;3.63;;
67941;SDS011;54731;42.600;23.476;2024-01-16T09:18:07;4.17;;;1.80;;
67941;SDS011;54731;42.600;23.476;2024-01-16T09:20:32;9.98;;;3.05;;
67941;SDS011;54731;42.600;23.476;2024-01-16T09:22:58;13.43;;;3.47;;
67941;SDS011;54731;42.600;23.476;2024-01-16T09:25:23;9.63;;;3.47;;
67941;SDS011;54731;42.600;23.476;2024-01-16T09:27:48;7.43;;;3.07;;
67941;SDS011;54731;42.600;23.476;2024-01-16T09:30:14;11.33;;;4.10;;
67941;SDS011;54731;42.600;23.476;2024-01-16T09:32:39;9.37;;;3.70;;
67941;SDS011;54731;42.600;23.476;2024-01-16T09:35:05;3.93;;;1.90;;
67941;SDS011;54731;42.600;23.476;2024-01-16T09:37:30;10.18;;;3.35;;
67941;SDS011;54731;42.600;23.476;2024-01-16T09:39:55;10.70;;;4.43;;
67941;SDS011;54731;42.600;23.476;2024-01-16T09:42:21;8.07;;;3.27;;
67941;SDS011;54731;42.600;23.476;2024-01-16T09:44:47;6.15;;;2.55;;
67941;SDS011;54731;42.600;23.476;2024-01-16T09:47:13;8.13;;;3.65;;
67941;SDS011;54731;42.600;23.476;2024-01-16T09:49:41;3.77;;;2.10;;
67941;SDS011;54731;42.600;23.476;2024-01-16T09:52:07;5.30;;;2.85;;
67941;SDS011;54731;42.600;23.476;2024-01-16T09:54:33;5.03;;;2.00;;
67941;SDS011;54731;42.600;23.476;2024-01-16T09:56:58;3.33;;;1.70;;
67941;SDS011;54731;42.600;23.476;2024-01-16T09:59:25;5.25;;;2.17;;
67941;SDS011;54731;42.600;23.476;2024-01-16T10:01:52;4.03;;;2.10;;
67941;SDS011;54731;42.600;23.476;2024-01-16T10:04:19;7.80;;;2.33;;
67941;SDS011;54731;42.600;23.476;2024-01-16T10:06:45;8.77;;;3.30;;
67941;SDS011;54731;42.600;23.476;2024-01-16T10:09:10;8.27;;;3.40;;
67941;SDS011;54731;42.600;23.476;2024-01-16T10:11:36;4.17;;;2.50;;
67941;SDS011;54731;42.600;23.476;2024-01-16T10:14:01;7.93;;;2.57;;
67941;SDS011;54731;42.600;23.476;2024-01-16T10:19:20;5.40;;;2.05;;
67941;SDS011;54731;42.600;23.476;2024-01-16T10:21:45;3.97;;;1.50;;
67941;SDS011;54731;42.600;23.476;2024-01-16T10:24:11;4.57;;;1.92;;
67941;SDS011;54731;42.600;23.476;2024-01-16T10:26:37;7.32;;;3.45;;
67941;SDS011;54731;42.600;23.476;2024-01-16T10:29:03;7.70;;;2.93;;
67941;SDS011;54731;42.600;23.476;2024-01-16T10:31:29;5.68;;;2.75;;
67941;SDS011;54731;42.600;23.476;2024-01-16T10:33:54;7.90;;;2.97;;
67941;SDS011;54731;42.600;23.476;2024-01-16T10:36:20;8.30;;;3.30;;
67941;SDS011;54731;42.600;23.476;2024-01-16T10:38:45;5.67;;;2.40;;
67941;SDS011;54731;42.600;23.476;2024-01-16T10:41:11;9.73;;;3.25;;
67941;SDS011;54731;42.600;23.476;2024-01-16T10:43:38;5.90;;;3.17;;
67941;SDS011;54731;42.600;23.476;2024-01-16T10:48:43;8.95;;;3.35;;
67941;SDS011;54731;42.600;23.476;2024-01-16T10:51:18;7.75;;;2.63;;
67941;SDS011;54731;42.600;23.476;2024-01-16T10:53:44;6.13;;;2.70;;
67941;SDS011;54731;42.600;23.476;2024-01-16T10:56:10;8.17;;;2.90;;
67941;SDS011;54731;42.600;23.476;2024-01-16T10:58:36;5.57;;;2.63;;
67941;SDS011;54731;42.600;23.476;2024-01-16T11:01:03;5.72;;;2.45;;
67941;SDS011;54731;42.600;23.476;2024-01-16T11:06:12;16.35;;;3.90;;
67941;SDS011;54731;42.600;23.476;2024-01-16T11:08:40;6.15;;;1.92;;
67941;SDS011;54731;42.600;23.476;2024-01-16T11:11:06;3.43;;;1.97;;
67941;SDS011;54731;42.600;23.476;2024-01-16T11:13:34;6.75;;;2.38;;
67941;SDS011;54731;42.600;23.476;2024-01-16T11:16:03;6.90;;;2.45;;
67941;SDS011;54731;42.600;23.476;2024-01-16T11:18:29;3.70;;;1.50;;
67941;SDS011;54731;42.600;23.476;2024-01-16T11:20:56;4.50;;;2.03;;
67941;SDS011;54731;42.600;23.476;2024-01-16T11:23:22;5.43;;;2.43;;
67941;SDS011;54731;42.600;23.476;2024-01-16T11:25:47;17.00;;;5.65;;
67941;SDS011;54731;42.600;23.476;2024-01-16T11:28:13;12.93;;;5.30;;
67941;SDS011;54731;42.600;23.476;2024-01-16T11:30:39;10.83;;;4.50;;
67941;SDS011;54731;42.600;23.476;2024-01-16T11:33:05;9.73;;;4.13;;
67941;SDS011;54731;42.600;23.476;2024-01-16T11:35:34;8.43;;;3.78;;
67941;SDS011;54731;42.600;23.476;2024-01-16T11:38:03;7.60;;;3.42;;
67941;SDS011;54731;42.600;23.476;2024-01-16T11:40:34;5.53;;;2.40;;
67941;SDS011;54731;42.600;23.476;2024-01-16T11:43:34;6.80;;;2.27;;
67941;SDS011;54731;42.600;23.476;2024-01-16T11:46:04;7.53;;;3.15;;
67941;SDS011;54731;42.600;23.476;2024-01-16T11:48:32;7.22;;;3.60;;
67941;SDS011;54731;42.600;23.476;2024-01-16T11:50:58;6.43;;;2.88;;
67941;SDS011;54731;42.600;23.476;2024-01-16T12:01:14;9.07;;;3.28;;
67941;SDS011;54731;42.600;23.476;2024-01-16T12:03:39;9.60;;;3.90;;
67941;SDS011;54731;42.600;23.476;2024-01-16T12:06:04;12.00;;;3.97;;
67941;SDS011;54731;42.600;23.476;2024-01-16T12:08:30;5.10;;;2.70;;
67941;SDS011;54731;42.600;23.476;2024-01-16T12:10:55;6.27;;;2.60;;
67941;SDS011;54731;42.600;23.476;2024-01-16T12:13:20;8.77;;;3.43;;
67941;SDS011;54731;42.600;23.476;2024-01-16T12:15:46;6.90;;;3.57;;
67941;SDS011;54731;42.600;23.476;2024-01-16T12:18:17;7.40;;;4.17;;
67941;SDS011;54731;42.600;23.476;2024-01-16T12:20:43;7.70;;;3.40;;
67941;SDS011;54731;42.600;23.476;2024-01-16T12:23:09;7.77;;;3.50;;
67941;SDS011;54731;42.600;23.476;2024-01-16T12:25:35;8.43;;;2.92;;
67941;SDS011;54731;42.600;23.476;2024-01-16T12:28:03;5.32;;;3.03;;
67941;SDS011;54731;42.600;23.476;2024-01-16T12:30:30;10.05;;;4.63;;
67941;SDS011;54731;42.600;23.476;2024-01-16T12:33:08;16.45;;;5.03;;
67941;SDS011;54731;42.600;23.476;2024-01-16T12:35:38;10.00;;;4.13;;
67941;SDS011;54731;42.600;23.476;2024-01-16T12:38:05;23.10;;;7.20;;
67941;SDS011;54731;42.600;23.476;2024-01-16T12:40:32;13.48;;;5.68;;
67941;SDS011;54731;42.600;23.476;2024-01-16T12:42:58;12.35;;;5.80;;
67941;SDS011;54731;42.600;23.476;2024-01-16T12:45:23;14.40;;;5.93;;
67941;SDS011;54731;42.600;23.476;2024-01-16T12:47:52;7.60;;;3.80;;
67941;SDS011;54731;42.600;23.476;2024-01-16T12:50:19;11.55;;;4.43;;
67941;SDS011;54731;42.600;23.476;2024-01-16T12:52:48;19.95;;;8.15;;
67941;SDS011;54731;42.600;23.476;2024-01-16T12:55:14;30.00;;;9.87;;
67941;SDS011;54731;42.600;23.476;2024-01-16T12:57:40;29.42;;;9.35;;
67941;SDS011;54731;42.600;23.476;2024-01-16T13:00:20;20.73;;;6.23;;
67941;SDS011;54731;42.600;23.476;2024-01-16T13:02:49;22.48;;;5.97;;
67941;SDS011;54731;42.600;23.476;2024-01-16T13:05:15;21.43;;;7.77;;
67941;SDS011;54731;42.600;23.476;2024-01-16T13:07:41;6.93;;;3.15;;
67941;SDS011;54731;42.600;23.476;2024-01-16T13:10:07;12.47;;;5.10;;
67941;SDS011;54731;42.600;23.476;2024-01-16T13:12:33;11.07;;;4.80;;
67941;SDS011;54731;42.600;23.476;2024-01-16T13:14:58;13.47;;;5.57;;
67941;SDS011;54731;42.600;23.476;2024-01-16T13:17:23;8.27;;;3.90;;
67941;SDS011;54731;42.600;23.476;2024-01-16T13:19:49;9.20;;;3.47;;
67941;SDS011;54731;42.600;23.476;2024-01-16T13:22:14;7.53;;;3.30;;
67941;SDS011;54731;42.600;23.476;2024-01-16T13:24:39;8.60;;;4.00;;
67941;SDS011;54731;42.600;23.476;2024-01-16T13:27:05;5.70;;;2.83;;
67941;SDS011;54731;42.600;23.476;2024-01-16T13:29:30;11.93;;;5.37;;
67941;SDS011;54731;42.600;23.476;2024-01-16T13:31:55;8.73;;;3.60;;
67941;SDS011;54731;42.600;23.476;2024-01-16T13:34:20;10.88;;;4.40;;
67941;SDS011;54731;42.600;23.476;2024-01-16T13:36:46;7.85;;;3.50;;
67941;SDS011;54731;42.600;23.476;2024-01-16T13:39:14;4.90;;;2.60;;
67941;SDS011;54731;42.600;23.476;2024-01-16T13:41:39;4.97;;;3.03;;
67941;SDS011;54731;42.600;23.476;2024-01-16T13:44:05;9.18;;;4.90;;
67941;SDS011;54731;42.600;23.476;2024-01-16T13:46:30;10.97;;;5.30;;
67941;SDS011;54731;42.600;23.476;2024-01-16T13:48:56;7.80;;;3.80;;
67941;SDS011;54731;42.600;23.476;2024-01-16T13:51:21;9.60;;;5.00;;
67941;SDS011;54731;42.600;23.476;2024-01-16T13:53:46;7.90;;;3.80;;
67941;SDS011;54731;42.600;23.476;2024-01-16T13:56:11;10.55;;;5.22;;
67941;SDS011;54731;42.600;23.476;2024-01-16T13:58:37;14.00;;;5.50;;
67941;SDS011;54731;42.600;23.476;2024-01-16T14:01:02;12.47;;;6.70;;
67941;SDS011;54731;42.600;23.476;2024-01-16T14:03:28;9.07;;;4.87;;
67941;SDS011;54731;42.600;23.476;2024-01-16T14:05:53;15.20;;;4.30;;
67941;SDS011;54731;42.600;23.476;2024-01-16T14:08:18;17.90;;;7.03;;
67941;SDS011;54731;42.600;23.476;2024-01-16T14:10:43;11.53;;;5.67;;
67941;SDS011;54731;42.600;23.476;2024-01-16T14:13:09;18.40;;;8.03;;
67941;SDS011;54731;42.600;23.476;2024-01-16T14:15:34;16.27;;;7.47;;
67941;SDS011;54731;42.600;23.476;2024-01-16T14:17:59;21.08;;;6.65;;
67941;SDS011;54731;42.600;23.476;2024-01-16T14:20:25;23.53;;;10.10;;
67941;SDS011;54731;42.600;23.476;2024-01-16T14:22:50;16.83;;;6.93;;
67941;SDS011;54731;42.600;23.476;2024-01-16T14:25:16;16.83;;;6.17;;
67941;SDS011;54731;42.600;23.476;2024-01-16T14:27:41;57.58;;;15.10;;
67941;SDS011;54731;42.600;23.476;2024-01-16T14:30:09;8.25;;;3.97;;
67941;SDS011;54731;42.600;23.476;2024-01-16T14:32:36;20.33;;;6.43;;
67941;SDS011;54731;42.600;23.476;2024-01-16T14:35:04;21.05;;;5.80;;